createdAt,value
2023-05-08T00:01:26.412Z,13.33
2023-05-08T00:03:53.532Z,13.34
2023-05-08T00:06:20.448Z,13.37
2023-05-08T00:08:47.138Z,13.36
2023-05-08T00:11:14.003Z,13.33
2023-05-08T00:13:41.521Z,13.35
2023-05-08T00:16:12.632Z,13.33
2023-05-08T00:18:39.768Z,13.31
2023-05-08T00:21:06.826Z,13.31
2023-05-08T00:23:34.029Z,13.27
2023-05-08T00:26:00.796Z,13.28
2023-05-08T00:28:27.597Z,13.23
2023-05-08T00:30:54.369Z,13.23
2023-05-08T00:33:21.109Z,13.23
2023-05-08T00:35:47.809Z,13.25
2023-05-08T00:38:14.550Z,13.25
2023-05-08T00:40:42.810Z,13.19
2023-05-08T00:43:09.486Z,13.21
2023-05-08T00:45:37.979Z,13.18
2023-05-08T00:48:05.134Z,13.13
2023-05-08T00:50:32.280Z,13.12
2023-05-08T00:53:01.128Z,13.11
2023-05-08T00:55:27.969Z,13.09
2023-05-08T00:57:54.618Z,13.07
2023-05-08T01:00:22.288Z,13.09
2023-05-08T01:02:50.090Z,13.08
2023-05-08T01:05:16.844Z,13.10
2023-05-08T01:07:43.546Z,13.11
2023-05-08T01:10:10.664Z,13.12
2023-05-08T01:13:02.155Z,13.15
2023-05-08T01:15:38.626Z,13.16
2023-05-08T01:18:21.895Z,13.19
2023-05-08T01:20:53.805Z,13.21
2023-05-08T01:23:51.451Z,13.18
2023-05-08T01:26:42.926Z,13.16
2023-05-08T01:29:19.014Z,13.15
2023-05-08T01:32:06.661Z,13.20
2023-05-08T01:34:34.274Z,13.18
2023-05-08T01:37:03.917Z,13.09
2023-05-08T01:39:45.133Z,13.07
2023-05-08T01:42:26.416Z,13.02
2023-05-08T01:45:05.748Z,12.96
2023-05-08T01:47:33.791Z,12.94
2023-05-08T01:50:07.408Z,12.92
2023-05-08T01:52:44.700Z,12.90
2023-05-08T01:55:13.483Z,12.86
2023-05-08T01:57:47.998Z,12.82
2023-05-08T02:00:16.656Z,12.82
2023-05-08T02:02:44.180Z,12.81
2023-05-08T02:05:11.179Z,12.85
2023-05-08T02:07:38.858Z,12.89
2023-05-08T02:10:06.733Z,12.89
2023-05-08T02:12:34.741Z,12.92
2023-05-08T02:15:03.215Z,12.94
2023-05-08T02:17:30.435Z,12.94
2023-05-08T02:19:58.390Z,12.97
2023-05-08T02:22:25.532Z,12.98
2023-05-08T02:24:55.643Z,12.99
2023-05-08T02:27:23.879Z,12.98
2023-05-08T02:29:52.038Z,12.99
2023-05-08T02:32:20.870Z,12.98
2023-05-08T02:35:01.941Z,12.99
2023-05-08T02:37:30.471Z,12.91
2023-05-08T02:39:58.644Z,12.92
2023-05-08T02:42:25.635Z,12.95
2023-05-08T02:44:52.431Z,12.93
2023-05-08T02:47:22.460Z,12.93
2023-05-08T02:49:53.274Z,12.92
2023-05-08T02:52:28.466Z,12.88
2023-05-08T02:55:26.563Z,12.88
2023-05-08T02:58:14.908Z,12.89
2023-05-08T03:00:47.993Z,12.89
2023-05-08T03:03:22.911Z,12.81
2023-05-08T03:05:58.146Z,12.81
2023-05-08T03:08:31.548Z,12.81
2023-05-08T03:11:01.782Z,12.84
2023-05-08T03:13:31.617Z,12.84
2023-05-08T03:16:00.872Z,12.80
2023-05-08T03:18:32.212Z,12.80
2023-05-08T03:21:00.028Z,12.81
2023-05-08T03:23:30.842Z,12.81
2023-05-08T03:25:59.266Z,12.81
2023-05-08T03:28:27.637Z,12.81
2023-05-08T03:30:57.397Z,12.71
2023-05-08T03:33:24.572Z,12.69
2023-05-08T03:35:51.251Z,12.68
2023-05-08T03:38:18.723Z,12.66
2023-05-08T03:40:45.503Z,12.66
2023-05-08T03:43:12.316Z,12.56
2023-05-08T03:45:41.118Z,12.57
2023-05-08T03:48:09.430Z,12.52
2023-05-08T03:50:38.180Z,12.49
2023-05-08T03:53:07.717Z,12.52
2023-05-08T03:55:34.363Z,12.48
2023-05-08T03:58:25.053Z,12.48
2023-05-08T04:01:06.480Z,12.49
2023-05-08T04:03:56.640Z,12.45
2023-05-08T04:06:48.751Z,12.48
2023-05-08T04:09:31.929Z,12.47
2023-05-08T04:12:10.165Z,12.40
2023-05-08T04:14:55.508Z,12.35
2023-05-08T04:17:42.973Z,12.36
2023-05-08T04:20:14.832Z,12.40
2023-05-08T04:22:42.644Z,12.36
2023-05-08T04:25:10.704Z,12.36
2023-05-08T04:27:38.972Z,12.33
2023-05-08T04:30:08.329Z,12.31
2023-05-08T04:32:37.159Z,12.31
2023-05-08T04:35:06.273Z,12.33
2023-05-08T04:37:32.974Z,12.38
2023-05-08T04:40:03.835Z,12.43
2023-05-08T04:42:33.449Z,12.49
2023-05-08T04:45:01.062Z,12.52
2023-05-08T04:47:27.738Z,12.58
2023-05-08T04:49:54.747Z,12.62
2023-05-08T04:52:21.441Z,12.66
2023-05-08T04:54:48.244Z,12.69
2023-05-08T04:57:14.950Z,12.70
2023-05-08T04:59:41.848Z,12.75
2023-05-08T05:02:09.465Z,12.85
2023-05-08T05:04:37.025Z,12.91
2023-05-08T05:07:05.101Z,12.98
2023-05-08T05:09:34.933Z,13.05
2023-05-08T05:12:01.707Z,13.11
2023-05-08T05:14:30.129Z,13.15
2023-05-08T05:16:57.118Z,13.19
2023-05-08T05:19:23.834Z,13.22
2023-05-08T05:21:50.811Z,13.26
2023-05-08T05:24:17.574Z,13.27
2023-05-08T05:26:44.219Z,13.32
2023-05-08T05:29:11.332Z,13.29
2023-05-08T05:31:39.014Z,13.26
2023-05-08T05:34:06.279Z,13.27
2023-05-08T05:36:32.868Z,13.23
2023-05-08T05:38:59.680Z,13.26
2023-05-08T05:41:26.386Z,13.26
2023-05-08T05:43:53.226Z,13.29
2023-05-08T05:46:19.984Z,13.32
2023-05-08T05:48:46.653Z,13.40
2023-05-08T05:51:13.695Z,13.45
2023-05-08T05:53:40.851Z,13.51
2023-05-08T05:56:07.797Z,13.52
2023-05-08T05:58:34.828Z,13.57
2023-05-08T06:01:01.686Z,13.58
2023-05-08T06:03:29.976Z,13.63
2023-05-08T06:05:56.813Z,13.61
2023-05-08T06:08:23.539Z,13.72
2023-05-08T06:10:50.198Z,13.89
2023-05-08T06:13:17.157Z,14.05
2023-05-08T06:15:44.090Z,14.14
2023-05-08T06:18:11.143Z,14.35
2023-05-08T06:20:38.744Z,14.57
2023-05-08T06:23:06.132Z,14.68
2023-05-08T06:25:32.899Z,14.80
2023-05-08T06:27:59.645Z,14.77
2023-05-08T06:30:26.390Z,15.09
2023-05-08T06:32:53.145Z,15.06
2023-05-08T06:35:19.994Z,15.09
2023-05-08T06:37:46.825Z,15.34
2023-05-08T06:40:13.915Z,15.51
2023-05-08T06:42:41.093Z,15.73
2023-05-08T06:45:09.069Z,15.93
2023-05-08T06:47:35.939Z,15.92
2023-05-08T06:50:02.757Z,15.73
2023-05-08T06:52:29.488Z,15.85
2023-05-08T06:54:56.134Z,15.99
2023-05-08T06:57:24.275Z,16.23
2023-05-08T06:59:50.964Z,16.55
2023-05-08T07:02:17.646Z,16.54
2023-05-08T07:04:44.770Z,16.22
2023-05-08T07:07:12.818Z,16.08
2023-05-08T07:09:39.840Z,16.03
2023-05-08T07:12:07.286Z,16.17
2023-05-08T07:14:34.065Z,16.47
2023-05-08T07:17:06.827Z,16.32
2023-05-08T07:19:36.921Z,16.13
2023-05-08T07:22:04.434Z,16.13
2023-05-08T07:24:31.657Z,16.24
2023-05-08T07:26:59.657Z,16.46
2023-05-08T07:29:27.004Z,16.19
2023-05-08T07:31:53.967Z,15.93
2023-05-08T07:34:20.877Z,15.86
2023-05-08T07:36:47.554Z,15.64
2023-05-08T07:39:14.266Z,15.77
2023-05-08T07:41:41.237Z,15.84
2023-05-08T07:44:08.311Z,16.29
2023-05-08T07:46:35.119Z,16.62
2023-05-08T07:49:01.917Z,17.09
2023-05-08T07:51:28.928Z,17.51
2023-05-08T07:53:55.644Z,17.67
2023-05-08T07:56:25.194Z,18.00
2023-05-08T07:58:51.933Z,17.91
2023-05-08T08:01:18.662Z,18.02
2023-05-08T08:03:46.155Z,17.78
2023-05-08T08:06:12.934Z,17.78
2023-05-08T08:08:39.658Z,17.50
2023-05-08T08:11:07.301Z,17.11
2023-05-08T08:13:34.225Z,16.79
2023-05-08T08:16:01.400Z,16.59
2023-05-08T08:18:28.664Z,16.62
2023-05-08T08:20:55.483Z,16.73
2023-05-08T08:23:22.367Z,16.48
2023-05-08T08:25:49.005Z,16.49
2023-05-08T08:28:15.822Z,16.54
2023-05-08T08:30:42.496Z,16.70
2023-05-08T08:33:09.348Z,16.68
2023-05-08T08:35:36.000Z,16.26
2023-05-08T08:38:02.646Z,16.43
2023-05-08T08:40:29.358Z,16.41
2023-05-08T08:42:56.119Z,16.57
2023-05-08T08:45:22.809Z,16.82
2023-05-08T08:47:52.264Z,17.17
2023-05-08T08:50:20.078Z,17.23
2023-05-08T08:53:10.537Z,17.20
2023-05-08T08:55:40.364Z,17.00
2023-05-08T08:58:46.812Z,16.72
2023-05-08T09:01:18.379Z,16.81
2023-05-08T09:03:46.767Z,16.73
2023-05-08T09:06:15.345Z,16.87
2023-05-08T09:08:42.671Z,16.89
2023-05-08T09:11:12.434Z,17.01
2023-05-08T09:13:39.201Z,17.02
2023-05-08T09:16:06.266Z,16.76
2023-05-08T09:18:33.159Z,16.67
2023-05-08T09:21:01.481Z,16.54
2023-05-08T09:23:28.346Z,16.43
2023-05-08T09:25:55.004Z,16.66
2023-05-08T09:28:24.033Z,16.87
2023-05-08T09:30:58.907Z,17.25
2023-05-08T09:33:27.576Z,17.75
2023-05-08T09:35:57.510Z,18.10
2023-05-08T09:38:40.465Z,18.20
2023-05-08T09:41:11.966Z,18.21
2023-05-08T09:43:39.256Z,18.46
2023-05-08T09:46:23.903Z,19.01
2023-05-08T09:48:55.396Z,18.74
2023-05-08T09:51:23.284Z,18.70
2023-05-08T09:53:53.866Z,18.65
2023-05-08T09:56:37.539Z,18.72
2023-05-08T09:59:06.360Z,18.69
2023-05-08T10:01:36.634Z,18.66
2023-05-08T10:04:05.569Z,18.39
2023-05-08T10:06:32.701Z,18.20
2023-05-08T10:09:10.185Z,18.09
2023-05-08T10:11:37.247Z,18.00
2023-05-08T10:14:03.961Z,18.02
2023-05-08T10:16:31.736Z,17.96
2023-05-08T10:19:05.920Z,18.01
2023-05-08T10:21:37.601Z,18.23
2023-05-08T10:24:07.036Z,18.22
2023-05-08T10:26:34.216Z,18.27
2023-05-08T10:29:08.303Z,18.60
2023-05-08T10:31:36.463Z,18.88
2023-05-08T10:34:04.119Z,19.21
2023-05-08T10:36:32.484Z,19.52
2023-05-08T10:38:59.502Z,20.16
2023-05-08T10:41:26.719Z,20.62
2023-05-08T10:43:53.614Z,20.61
2023-05-08T10:46:38.254Z,20.38
2023-05-08T10:49:22.417Z,20.02
2023-05-08T10:52:08.169Z,19.70
2023-05-08T10:55:33.411Z,19.70
2023-05-08T10:58:12.236Z,19.58
2023-05-08T11:00:56.753Z,19.67
2023-05-08T11:03:31.399Z,19.03
2023-05-08T11:06:00.313Z,19.28
2023-05-08T11:08:28.285Z,19.03
2023-05-08T11:11:01.796Z,19.25
2023-05-08T11:13:36.105Z,19.46
2023-05-08T11:16:03.748Z,19.54
2023-05-08T11:18:45.732Z,19.47
2023-05-08T11:21:23.442Z,19.54
2023-05-08T11:23:57.911Z,19.84
2023-05-08T11:26:40.049Z,19.69
2023-05-08T11:29:16.778Z,19.73
2023-05-08T11:31:51.017Z,19.70
2023-05-08T11:34:42.966Z,19.71
2023-05-08T11:37:10.534Z,19.57
2023-05-08T11:39:37.485Z,19.45
2023-05-08T11:42:26.906Z,19.31
2023-05-08T11:45:11.806Z,19.18
2023-05-08T11:47:41.421Z,19.50
2023-05-08T11:50:09.829Z,19.35
2023-05-08T11:52:37.617Z,19.26
2023-05-08T11:55:06.145Z,19.03
2023-05-08T11:57:33.371Z,18.95
2023-05-08T12:00:10.848Z,19.19
2023-05-08T12:02:45.985Z,19.48
2023-05-08T12:05:12.974Z,19.47
2023-05-08T12:07:44.753Z,19.65
2023-05-08T12:10:11.794Z,19.88
2023-05-08T12:12:42.566Z,20.12
2023-05-08T12:15:13.702Z,20.29
2023-05-08T12:17:41.450Z,20.30
2023-05-08T12:20:17.129Z,20.69
2023-05-08T12:22:52.798Z,21.19
2023-05-08T12:25:20.157Z,21.62
2023-05-08T12:27:47.060Z,21.93
2023-05-08T12:30:14.933Z,22.22
2023-05-08T12:32:42.836Z,22.72
2023-05-08T12:35:11.088Z,22.53
2023-05-08T12:37:38.093Z,22.40
2023-05-08T12:40:05.481Z,21.38
2023-05-08T12:42:47.898Z,21.06
2023-05-08T12:45:18.489Z,20.89
2023-05-08T12:47:46.793Z,21.16
2023-05-08T12:50:15.590Z,20.91
2023-05-08T12:52:42.818Z,20.56
2023-05-08T12:55:21.454Z,20.00
2023-05-08T12:57:59.136Z,20.51
2023-05-08T13:00:26.010Z,20.93
2023-05-08T13:02:55.883Z,21.26
2023-05-08T13:05:23.776Z,21.54
2023-05-08T13:07:51.427Z,21.79
2023-05-08T13:10:23.974Z,21.80
2023-05-08T13:12:52.287Z,21.80
2023-05-08T13:15:19.043Z,22.27
2023-05-08T13:17:45.746Z,21.87
2023-05-08T13:20:12.582Z,21.50
2023-05-08T13:22:39.502Z,21.24
2023-05-08T13:25:08.037Z,21.36
2023-05-08T13:27:34.800Z,21.46
2023-05-08T13:30:01.502Z,21.90
2023-05-08T13:32:28.634Z,21.58
2023-05-08T13:34:57.710Z,21.14
2023-05-08T13:37:26.904Z,20.98
2023-05-08T13:39:53.521Z,20.99
2023-05-08T13:42:20.317Z,21.16
2023-05-08T13:44:46.962Z,21.04
2023-05-08T13:47:13.640Z,20.64
2023-05-08T13:49:40.301Z,20.19
2023-05-08T13:52:07.940Z,20.06
2023-05-08T13:54:34.551Z,20.60
2023-05-08T13:57:02.636Z,20.74
2023-05-08T13:59:31.280Z,20.59
2023-05-08T14:01:58.050Z,21.01
2023-05-08T14:04:24.741Z,21.16
2023-05-08T14:06:51.506Z,21.34
2023-05-08T14:09:18.190Z,21.38
2023-05-08T14:11:45.050Z,21.30
2023-05-08T14:14:11.758Z,20.79
2023-05-08T14:16:38.533Z,21.11
2023-05-08T14:19:05.332Z,20.95
2023-05-08T14:21:32.116Z,20.89
2023-05-08T14:23:58.760Z,20.56
2023-05-08T14:26:26.425Z,20.86
2023-05-08T14:28:53.103Z,21.25
2023-05-08T14:31:19.846Z,21.34
2023-05-08T14:33:46.525Z,21.20
2023-05-08T14:36:13.198Z,21.29
2023-05-08T14:38:39.771Z,21.56
2023-05-08T14:41:06.540Z,20.76
2023-05-08T14:43:33.374Z,20.37
2023-05-08T14:46:00.091Z,20.29
2023-05-08T14:48:27.590Z,20.01
2023-05-08T14:50:54.244Z,20.08
2023-05-08T14:53:21.895Z,19.94
2023-05-08T14:55:48.962Z,20.32
2023-05-08T14:58:15.871Z,20.01
2023-05-08T15:00:42.542Z,19.81
2023-05-08T15:03:09.276Z,20.01
2023-05-08T15:05:35.984Z,20.55
2023-05-08T15:08:02.958Z,20.44
2023-05-08T15:10:29.774Z,20.63
2023-05-08T15:12:56.604Z,20.75
2023-05-08T15:15:23.574Z,20.48
2023-05-08T15:17:50.186Z,20.46
2023-05-08T15:20:17.199Z,20.56
2023-05-08T15:22:43.954Z,20.47
2023-05-08T15:25:10.950Z,20.36
2023-05-08T15:27:37.659Z,20.73
2023-05-08T15:30:05.137Z,21.16
2023-05-08T15:32:31.824Z,21.21
2023-05-08T15:34:58.579Z,22.42
2023-05-08T15:37:25.268Z,23.19
2023-05-08T15:39:51.960Z,22.87
2023-05-08T15:42:18.679Z,22.70
2023-05-08T15:47:15.397Z,23.78
2023-05-08T15:49:42.264Z,23.77
2023-05-08T15:52:09.056Z,23.99
2023-05-08T15:54:35.673Z,23.56
2023-05-08T15:57:02.400Z,23.31
2023-05-08T15:59:30.510Z,23.61
2023-05-08T16:01:57.132Z,23.20
2023-05-08T16:04:23.742Z,23.42
2023-05-08T16:06:50.495Z,23.13
2023-05-08T16:09:17.107Z,22.83
2023-05-08T16:11:43.740Z,22.56
2023-05-08T16:14:10.391Z,22.12
2023-05-08T16:16:38.343Z,22.30
2023-05-08T16:19:05.009Z,22.58
2023-05-08T16:21:31.695Z,22.26
2023-05-08T16:23:58.442Z,21.75
2023-05-08T16:26:26.388Z,21.08
2023-05-08T16:28:53.058Z,20.43
2023-05-08T16:31:19.815Z,19.98
2023-05-08T16:33:46.584Z,20.08
2023-05-08T16:36:13.309Z,20.66
2023-05-08T16:38:40.002Z,20.82
2023-05-08T16:41:09.118Z,20.82
2023-05-08T16:43:35.901Z,20.50
2023-05-08T16:46:02.633Z,20.30
2023-05-08T16:48:30.351Z,20.22
2023-05-08T16:50:57.268Z,19.89
2023-05-08T16:53:23.998Z,19.90
2023-05-08T16:55:50.822Z,19.75
2023-05-08T16:58:17.530Z,19.36
2023-05-08T17:00:44.372Z,19.08
2023-05-08T17:03:11.311Z,18.94
2023-05-08T17:05:38.214Z,18.81
2023-05-08T17:08:04.934Z,18.74
2023-05-08T17:10:31.682Z,18.53
2023-05-08T17:12:58.422Z,18.41
2023-05-08T17:15:25.069Z,18.44
2023-05-08T17:17:51.788Z,18.45
2023-05-08T17:20:18.431Z,18.44
2023-05-08T17:22:45.178Z,18.32
2023-05-08T17:25:11.815Z,18.21
2023-05-08T17:27:39.020Z,18.22
2023-05-08T17:30:08.393Z,18.36
2023-05-08T17:32:35.251Z,18.47
2023-05-08T17:35:01.909Z,18.67
2023-05-08T17:37:28.688Z,18.92
2023-05-08T17:39:55.326Z,18.93
2023-05-08T17:42:21.988Z,19.00
2023-05-08T17:44:48.751Z,18.84
2023-05-08T17:47:15.411Z,18.82
2023-05-08T17:49:42.069Z,18.53
2023-05-08T17:52:08.700Z,18.44
2023-05-08T17:54:35.361Z,18.44
2023-05-08T17:57:02.117Z,18.15
2023-05-08T17:59:28.766Z,18.10
2023-05-08T18:01:55.499Z,17.84
2023-05-08T18:04:22.236Z,17.89
2023-05-08T18:06:49.531Z,17.80
2023-05-08T18:09:16.378Z,17.62
2023-05-08T18:11:43.094Z,17.53
2023-05-08T18:14:09.839Z,17.33
2023-05-08T18:16:36.587Z,17.24
2023-05-08T18:19:03.339Z,17.15
2023-05-08T18:21:30.162Z,16.99
2023-05-08T18:23:56.799Z,16.75
2023-05-08T18:26:23.500Z,16.48
2023-05-08T18:28:50.206Z,16.45
2023-05-08T18:31:17.056Z,16.40
2023-05-08T18:33:43.798Z,16.29
2023-05-08T18:36:10.742Z,16.13
2023-05-08T18:38:37.510Z,15.98
2023-05-08T18:41:05.206Z,15.88
2023-05-08T18:43:31.935Z,15.70
2023-05-08T18:46:00.591Z,15.61
2023-05-08T18:48:27.606Z,15.62
2023-05-08T18:50:58.504Z,15.52
2023-05-08T18:53:25.884Z,15.36
2023-05-08T18:55:52.902Z,15.28
2023-05-08T18:58:19.668Z,15.26
2023-05-08T19:00:46.412Z,15.19
2023-05-08T19:03:13.662Z,15.09
2023-05-08T19:05:43.679Z,14.99
2023-05-08T19:08:10.495Z,14.92
2023-05-08T19:10:37.154Z,14.85
2023-05-08T19:13:03.920Z,14.75
2023-05-08T19:15:30.606Z,14.63
2023-05-08T19:17:57.345Z,14.61
2023-05-08T19:20:24.089Z,14.55
2023-05-08T19:22:50.824Z,14.54
2023-05-08T19:25:17.485Z,14.52
2023-05-08T19:27:44.194Z,14.45
2023-05-08T19:30:11.280Z,14.42
2023-05-08T19:32:38.171Z,14.40
2023-05-08T19:35:05.197Z,14.38
2023-05-08T19:37:31.848Z,14.43
2023-05-08T19:39:58.428Z,14.41
2023-05-08T19:42:25.152Z,14.39
2023-05-08T19:44:51.836Z,14.41
2023-05-08T19:47:19.681Z,14.40
2023-05-08T19:49:46.333Z,14.42
2023-05-08T19:52:13.100Z,14.42
2023-05-08T19:54:39.750Z,14.40
2023-05-08T19:57:06.471Z,14.42
2023-05-08T19:59:33.119Z,14.44
2023-05-08T20:01:59.879Z,14.37
2023-05-08T20:04:26.577Z,14.36
2023-05-08T20:06:53.197Z,14.32
2023-05-08T20:09:19.859Z,14.35
2023-05-08T20:11:47.125Z,14.41
2023-05-08T20:14:13.806Z,14.42
2023-05-08T20:16:41.753Z,14.39
2023-05-08T20:19:08.570Z,14.44
2023-05-08T20:21:35.315Z,14.50
2023-05-08T20:24:02.021Z,14.45
2023-05-08T20:26:29.498Z,14.49
2023-05-08T20:28:56.930Z,14.48
2023-05-08T20:31:25.736Z,14.44
2023-05-08T20:33:52.497Z,14.57
2023-05-08T20:36:19.118Z,14.54
2023-05-08T20:38:45.814Z,14.49
2023-05-08T20:41:12.459Z,14.53
2023-05-08T20:43:39.024Z,14.56
2023-05-08T20:46:05.846Z,14.58
2023-05-08T20:48:32.540Z,14.57
2023-05-08T20:50:59.422Z,14.59
2023-05-08T20:53:26.160Z,14.67
2023-05-08T20:56:00.513Z,14.76
2023-05-08T20:58:27.238Z,14.75
2023-05-08T21:00:53.916Z,14.76
2023-05-08T21:03:20.584Z,14.76
2023-05-08T21:05:47.219Z,14.72
2023-05-08T21:08:13.934Z,14.71
2023-05-08T21:10:40.675Z,14.64
2023-05-08T21:13:07.422Z,14.63
2023-05-08T21:15:35.070Z,14.56
2023-05-08T21:18:01.897Z,14.53
2023-05-08T21:20:28.522Z,14.53
2023-05-08T21:22:55.564Z,14.46
2023-05-08T21:25:22.367Z,14.42
2023-05-08T21:27:49.014Z,14.46
2023-05-08T21:30:16.449Z,14.39
2023-05-08T21:32:44.318Z,14.27
2023-05-08T21:35:12.187Z,14.35
2023-05-08T21:37:39.536Z,14.37
2023-05-08T21:40:06.943Z,14.38
2023-05-08T21:42:33.723Z,14.46
2023-05-08T21:45:00.884Z,14.41
2023-05-08T21:47:28.128Z,14.59
2023-05-08T21:49:55.313Z,14.43
2023-05-08T21:52:22.676Z,14.24
2023-05-08T21:54:50.070Z,14.02
2023-05-08T21:57:16.829Z,14.07
2023-05-08T21:59:43.509Z,14.15
2023-05-08T22:02:10.263Z,14.00
2023-05-08T22:04:36.926Z,13.95
2023-05-08T22:07:03.634Z,13.79
2023-05-08T22:09:30.245Z,13.75
2023-05-08T22:11:56.922Z,13.66
2023-05-08T22:14:23.501Z,13.62
2023-05-08T22:16:50.183Z,13.65
2023-05-08T22:19:16.760Z,13.68
2023-05-08T22:21:43.547Z,13.62
2023-05-08T22:24:10.138Z,13.59
2023-05-08T22:26:36.796Z,13.61
2023-05-08T22:29:03.441Z,13.60
2023-05-08T22:31:30.174Z,13.60
2023-05-08T22:33:58.089Z,13.63
2023-05-08T22:36:24.961Z,13.60
2023-05-08T22:38:51.854Z,13.59
2023-05-08T22:41:18.516Z,13.63
2023-05-08T22:43:45.278Z,13.62
2023-05-08T22:46:12.199Z,13.61
2023-05-08T22:48:39.091Z,13.61
2023-05-08T22:51:07.051Z,13.50
2023-05-08T22:53:33.737Z,13.53
2023-05-08T22:56:00.492Z,13.49
2023-05-08T22:58:29.101Z,13.52
2023-05-08T23:00:55.940Z,13.56
2023-05-08T23:03:22.661Z,13.56
2023-05-08T23:05:49.326Z,13.86
2023-05-08T23:08:16.071Z,13.81
2023-05-08T23:10:42.789Z,13.79
2023-05-08T23:13:09.480Z,13.77
2023-05-08T23:15:36.760Z,13.87
2023-05-08T23:18:03.352Z,13.83
2023-05-08T23:20:30.138Z,13.75
2023-05-08T23:22:56.873Z,13.75
2023-05-08T23:25:23.687Z,13.71
2023-05-08T23:27:50.298Z,13.70
2023-05-08T23:30:17.079Z,13.71
2023-05-08T23:32:44.292Z,13.72
2023-05-08T23:35:11.532Z,13.75
2023-05-08T23:37:38.273Z,13.75
2023-05-08T23:40:06.245Z,13.79
2023-05-08T23:42:32.897Z,13.66
2023-05-08T23:44:59.699Z,13.54
2023-05-08T23:47:26.364Z,13.38
2023-05-08T23:49:53.040Z,13.23
2023-05-08T23:52:20.493Z,13.21
2023-05-08T23:54:47.227Z,13.18
2023-05-08T23:57:13.837Z,13.03
2023-05-08T23:59:40.494Z,12.87
